sensor_id;sensor_type;location;lat;lon;timestamp;pressure;altitude;pressure_sealevel;temperature;humidity
30554;BME280;17335;50.720;7.452;2023-02-14T00:00:56;101190.19;;;0.95;100.00
30554;BME280;17335;50.720;7.452;2023-02-14T00:03:23;101192.88;;;0.93;100.00
30554;BME280;17335;50.720;7.452;2023-02-14T00:05:50;101195.69;;;0.86;100.00
30554;BME280;17335;50.720;7.452;2023-02-14T00:08:17;101198.44;;;0.83;100.00
30554;BME280;17335;50.720;7.452;2023-02-14T00:10:43;101196.75;;;0.79;100.00
30554;BME280;17335;50.720;7.452;2023-02-14T00:13:10;101203.84;;;0.78;100.00
30554;BME280;17335;50.720;7.452;2023-02-14T00:15:36;101196.75;;;0.79;100.00
30554;BME280;17335;50.720;7.452;2023-02-14T00:18:03;101202.75;;;0.87;100.00
30554;BME280;17335;50.720;7.452;2023-02-14T00:20:31;101202.88;;;0.81;100.00
30554;BME280;17335;50.720;7.452;2023-02-14T00:22:57;101199.38;;;0.80;100.00
30554;BME280;17335;50.720;7.452;2023-02-14T00:25:26;101201.31;;;0.72;100.00
30554;BME280;17335;50.720;7.452;2023-02-14T00:27:52;101198.03;;;0.62;100.00
30554;BME280;17335;50.720;7.452;2023-02-14T00:30:21;101198.94;;;0.61;100.00
30554;BME280;17335;50.720;7.452;2023-02-14T00:32:48;101202.66;;;0.52;100.00
30554;BME280;17335;50.720;7.452;2023-02-14T00:35:15;101192.06;;;0.54;100.00
30554;BME280;17335;50.720;7.452;2023-02-14T00:37:44;101198.16;;;0.58;100.00
30554;BME280;17335;50.720;7.452;2023-02-14T00:40:12;101187.53;;;0.59;100.00
30554;BME280;17335;50.720;7.452;2023-02-14T00:42:39;101190.13;;;0.62;100.00
30554;BME280;17335;50.720;7.452;2023-02-14T00:45:05;101191.00;;;0.61;100.00
30554;BME280;17335;50.720;7.452;2023-02-14T00:47:32;101189.34;;;0.57;100.00
30554;BME280;17335;50.720;7.452;2023-02-14T00:49:59;101193.00;;;0.51;100.00
30554;BME280;17335;50.720;7.452;2023-02-14T00:52:29;101184.38;;;0.43;100.00
30554;BME280;17335;50.720;7.452;2023-02-14T00:54:55;101183.63;;;0.38;100.00
30554;BME280;17335;50.720;7.452;2023-02-14T00:57:25;101181.84;;;0.39;100.00
30554;BME280;17335;50.720;7.452;2023-02-14T00:59:51;101180.03;;;0.41;100.00
30554;BME280;17335;50.720;7.452;2023-02-14T01:02:27;101185.28;;;0.42;100.00
30554;BME280;17335;50.720;7.452;2023-02-14T01:04:54;101178.19;;;0.44;100.00
30554;BME280;17335;50.720;7.452;2023-02-14T01:07:20;101185.28;;;0.42;100.00
30554;BME280;17335;50.720;7.452;2023-02-14T01:09:47;101189.72;;;0.42;100.00
30554;BME280;17335;50.720;7.452;2023-02-14T01:12:14;101188.03;;;0.37;100.00
30554;BME280;17335;50.720;7.452;2023-02-14T01:14:41;101190.88;;;0.28;100.00
30554;BME280;17335;50.720;7.452;2023-02-14T01:17:32;101185.63;;;0.27;100.00
30554;BME280;17335;50.720;7.452;2023-02-14T01:19:59;101184.88;;;0.20;100.00
30554;BME280;17335;50.720;7.452;2023-02-14T01:29:12;101185.72;;;0.22;100.00
30554;BME280;17335;50.720;7.452;2023-02-14T01:31:39;101188.38;;;0.21;100.00
30554;BME280;17335;50.720;7.452;2023-02-14T01:34:06;101187.34;;;0.29;100.00
30554;BME280;17335;50.720;7.452;2023-02-14T01:36:35;101189.00;;;0.33;100.00
30554;BME280;17335;50.720;7.452;2023-02-14T01:39:10;101181.84;;;0.39;100.00
30554;BME280;17335;50.720;7.452;2023-02-14T01:41:38;101189.47;;;0.51;100.00
30554;BME280;17335;50.720;7.452;2023-02-14T01:47:04;101172.03;;;0.81;100.00
30554;BME280;17335;50.720;7.452;2023-02-14T01:49:36;101170.00;;;0.91;100.00
30554;BME280;17335;50.720;7.452;2023-02-14T01:52:10;101167.94;;;1.04;100.00
30554;BME280;17335;50.720;7.452;2023-02-14T01:54:42;101165.84;;;1.17;100.00
30554;BME280;17335;50.720;7.452;2023-02-14T01:57:12;101160.53;;;1.49;100.00
30554;BME280;17335;50.720;7.452;2023-02-14T01:59:47;101162.22;;;1.54;100.00
30554;BME280;17335;50.720;7.452;2023-02-14T02:02:16;101158.81;;;1.48;100.00
30554;BME280;17335;50.720;7.452;2023-02-14T02:04:52;101151.78;;;1.47;100.00
30554;BME280;17335;50.720;7.452;2023-02-14T02:07:23;101149.13;;;1.47;100.00
30554;BME280;17335;50.720;7.452;2023-02-14T02:09:58;101150.59;;;1.59;100.00
30554;BME280;17335;50.720;7.452;2023-02-14T02:12:26;101155.00;;;1.59;100.00
30554;BME280;17335;50.720;7.452;2023-02-14T02:14:57;101148.06;;;1.55;100.00
30554;BME280;17335;50.720;7.452;2023-02-14T02:40:20;101145.03;;;1.03;100.00
30554;BME280;17335;50.720;7.452;2023-02-14T02:43:02;101151.97;;;1.08;100.00
30554;BME280;17335;50.720;7.452;2023-02-14T02:45:46;101143.19;;;1.06;100.00
30554;BME280;17335;50.720;7.452;2023-02-14T02:48:43;101138.28;;;0.91;100.00
30554;BME280;17335;50.720;7.452;2023-02-14T02:51:18;101135.81;;;0.85;100.00
30554;BME280;17335;50.720;7.452;2023-02-14T02:54:12;101138.41;;;0.86;100.00
30554;BME280;17335;50.720;7.452;2023-02-14T02:56:48;101140.78;;;0.97;100.00
30554;BME280;17335;50.720;7.452;2023-02-14T02:59:27;101136.63;;;1.21;100.00
30554;BME280;17335;50.720;7.452;2023-02-14T03:02:10;101137.81;;;1.42;100.00
30554;BME280;17335;50.720;7.452;2023-02-14T03:04:41;101134.50;;;1.34;100.00
30554;BME280;17335;50.720;7.452;2023-02-14T03:10:17;101147.25;;;1.20;100.00
30554;BME280;17335;50.720;7.452;2023-02-14T03:15:30;101135.53;;;1.28;100.00
30554;BME280;17335;50.720;7.452;2023-02-14T03:23:20;101140.81;;;0.96;100.00
30554;BME280;17335;50.720;7.452;2023-02-14T03:31:23;101144.09;;;1.05;100.00
30554;BME280;17335;50.720;7.452;2023-02-14T03:36:47;101135.50;;;0.97;100.00
30554;BME280;17335;50.720;7.452;2023-02-14T03:39:29;101138.06;;;1.00;100.00
30554;BME280;17335;50.720;7.452;2023-02-14T03:42:19;101137.47;;;0.89;100.00
30554;BME280;17335;50.720;7.452;2023-02-14T03:44:49;101130.44;;;0.88;100.00
30554;BME280;17335;50.720;7.452;2023-02-14T03:47:21;101127.19;;;1.11;100.00
30554;BME280;17335;50.720;7.452;2023-02-14T03:49:54;101132.38;;;1.16;100.00
30554;BME280;17335;50.720;7.452;2023-02-14T03:52:23;101133.84;;;0.93;100.00
30554;BME280;17335;50.720;7.452;2023-02-14T03:54:55;101137.53;;;0.86;100.00
30554;BME280;17335;50.720;7.452;2023-02-14T03:58:11;101126.66;;;0.98;100.00
30554;BME280;17335;50.720;7.452;2023-02-14T04:00:12;101138.97;;;0.99;100.00
30554;BME280;17335;50.720;7.452;2023-02-14T04:02:43;101136.50;;;0.93;100.00
30554;BME280;17335;50.720;7.452;2023-02-14T04:05:16;101137.06;;;0.70;100.00
30554;BME280;17335;50.720;7.452;2023-02-14T04:07:51;101137.50;;;0.87;100.00
30554;BME280;17335;50.720;7.452;2023-02-14T04:10:19;101139.78;;;1.01;100.00
30554;BME280;17335;50.720;7.452;2023-02-14T04:12:47;101139.97;;;0.95;100.00
30554;BME280;17335;50.720;7.452;2023-02-14T04:15:14;101141.47;;;1.05;100.00
30554;BME280;17335;50.720;7.452;2023-02-14T04:17:41;101138.84;;;1.37;100.00
30554;BME280;17335;50.720;7.452;2023-02-14T04:20:26;101129.16;;;1.03;100.00
30554;BME280;17335;50.720;7.452;2023-02-14T04:22:54;101129.88;;;1.09;100.00
30554;BME280;17335;50.720;7.452;2023-02-14T04:25:21;101131.59;;;1.12;100.00
30554;BME280;17335;50.720;7.452;2023-02-14T04:27:48;101129.94;;;1.06;100.00
30554;BME280;17335;50.720;7.452;2023-02-14T04:30:15;101128.22;;;1.05;100.00
30554;BME280;17335;50.720;7.452;2023-02-14T04:32:43;101128.16;;;1.08;100.00
30554;BME280;17335;50.720;7.452;2023-02-14T04:35:10;101120.97;;;1.14;100.00
30554;BME280;17335;50.720;7.452;2023-02-14T04:37:36;101115.75;;;1.10;100.00
30554;BME280;17335;50.720;7.452;2023-02-14T04:40:03;101109.31;;;1.21;100.00
30554;BME280;17335;50.720;7.452;2023-02-14T04:42:30;101109.78;;;1.35;100.00
30554;BME280;17335;50.720;7.452;2023-02-14T04:44:57;101112.31;;;1.40;100.00
30554;BME280;17335;50.720;7.452;2023-02-14T04:47:24;101114.53;;;1.55;100.00
30554;BME280;17335;50.720;7.452;2023-02-14T04:49:50;101121.06;;;1.73;100.00
30554;BME280;17335;50.720;7.452;2023-02-14T04:52:17;101114.81;;;1.76;100.00
30554;BME280;17335;50.720;7.452;2023-02-14T04:54:44;101106.47;;;1.90;100.00
30554;BME280;17335;50.720;7.452;2023-02-14T04:57:10;101104.47;;;1.98;100.00
30554;BME280;17335;50.720;7.452;2023-02-14T04:59:37;101099.72;;;2.08;100.00
30554;BME280;17335;50.720;7.452;2023-02-14T05:02:03;101102.75;;;2.23;100.00
30554;BME280;17335;50.720;7.452;2023-02-14T05:04:30;101090.94;;;2.34;100.00
30554;BME280;17335;50.720;7.452;2023-02-14T05:06:56;101094.22;;;2.42;100.00
30554;BME280;17335;50.720;7.452;2023-02-14T05:09:24;101093.94;;;2.51;100.00
30554;BME280;17335;50.720;7.452;2023-02-14T05:11:51;101078.09;;;2.50;100.00
30554;BME280;17335;50.720;7.452;2023-02-14T05:14:17;101088.84;;;2.45;100.00
30554;BME280;17335;50.720;7.452;2023-02-14T05:16:44;101080.06;;;2.43;100.00
30554;BME280;17335;50.720;7.452;2023-02-14T05:19:11;101082.13;;;2.33;100.00
30554;BME280;17335;50.720;7.452;2023-02-14T05:21:38;101084.59;;;2.39;100.00
30554;BME280;17335;50.720;7.452;2023-02-14T05:24:05;101083.63;;;2.42;100.00
30554;BME280;17335;50.720;7.452;2023-02-14T05:26:32;101074.31;;;2.29;100.00
30554;BME280;17335;50.720;7.452;2023-02-14T05:28:58;101076.06;;;2.30;100.00
30554;BME280;17335;50.720;7.452;2023-02-14T05:31:25;101059.16;;;2.34;100.00
30554;BME280;17335;50.720;7.452;2023-02-14T05:33:52;101059.75;;;2.42;100.00
30554;BME280;17335;50.720;7.452;2023-02-14T05:36:19;101066.97;;;2.38;100.00
30554;BME280;17335;50.720;7.452;2023-02-14T05:38:45;101069.03;;;2.29;100.00
30554;BME280;17335;50.720;7.452;2023-02-14T05:41:12;101069.81;;;2.32;100.00
30554;BME280;17335;50.720;7.452;2023-02-14T05:43:38;101067.25;;;2.29;100.00
30554;BME280;17335;50.720;7.452;2023-02-14T05:46:05;101058.38;;;2.30;100.00
30554;BME280;17335;50.720;7.452;2023-02-14T05:48:32;101075.25;;;2.28;100.00
30554;BME280;17335;50.720;7.452;2023-02-14T05:51:04;101066.38;;;2.29;100.00
30554;BME280;17335;50.720;7.452;2023-02-14T05:53:31;101069.03;;;2.29;100.00
30554;BME280;17335;50.720;7.452;2023-02-14T05:55:58;101071.59;;;2.32;100.00
30554;BME280;17335;50.720;7.452;2023-02-14T05:58:25;101070.63;;;2.34;100.00
30554;BME280;17335;50.720;7.452;2023-02-14T06:00:52;101067.94;;;2.36;100.00
30554;BME280;17335;50.720;7.452;2023-02-14T06:03:19;101070.59;;;2.36;100.00
30554;BME280;17335;50.720;7.452;2023-02-14T06:05:45;101066.28;;;2.32;100.00
30554;BME280;17335;50.720;7.452;2023-02-14T06:08:12;101073.50;;;2.27;100.00
30554;BME280;17335;50.720;7.452;2023-02-14T06:10:38;101072.75;;;2.23;100.00
30554;BME280;17335;50.720;7.452;2023-02-14T06:13:04;101073.72;;;2.20;100.00
30554;BME280;17335;50.720;7.452;2023-02-14T06:15:36;101080.75;;;2.21;100.00
30554;BME280;17335;50.720;7.452;2023-02-14T06:18:04;101077.31;;;2.18;100.00
30554;BME280;17335;50.720;7.452;2023-02-14T06:20:30;101073.06;;;2.14;100.00
30554;BME280;17335;50.720;7.452;2023-02-14T06:22:57;101081.22;;;2.06;100.00
30554;BME280;17335;50.720;7.452;2023-02-14T06:25:24;101082.06;;;2.08;100.00
30554;BME280;17335;50.720;7.452;2023-02-14T06:27:55;101073.19;;;2.09;100.00
30554;BME280;17335;50.720;7.452;2023-02-14T06:30:22;101085.56;;;2.09;100.00
30554;BME280;17335;50.720;7.452;2023-02-14T06:32:49;101090.03;;;2.08;100.00
30554;BME280;17335;50.720;7.452;2023-02-14T06:35:15;101075.78;;;2.11;100.00
30554;BME280;17335;50.720;7.452;2023-02-14T06:37:43;101080.22;;;2.10;100.00
30554;BME280;17335;50.720;7.452;2023-02-14T06:40:11;101084.56;;;2.13;100.00
30554;BME280;17335;50.720;7.452;2023-02-14T06:42:37;101087.25;;;2.11;100.00
30554;BME280;17335;50.720;7.452;2023-02-14T06:45:05;101085.31;;;2.16;100.00
30554;BME280;17335;50.720;7.452;2023-02-14T06:47:31;101078.34;;;2.14;100.00
30554;BME280;17335;50.720;7.452;2023-02-14T06:50:00;101081.84;;;2.14;100.00
30554;BME280;17335;50.720;7.452;2023-02-14T06:52:31;101080.91;;;2.17;100.00
30554;BME280;17335;50.720;7.452;2023-02-14T06:54:57;101093.28;;;2.16;100.00
30554;BME280;17335;50.720;7.452;2023-02-14T06:57:24;101086.09;;;2.20;100.00
30554;BME280;17335;50.720;7.452;2023-02-14T06:59:50;101087.78;;;2.22;100.00
30554;BME280;17335;50.720;7.452;2023-02-14T07:02:17;101088.81;;;2.18;100.00
30554;BME280;17335;50.720;7.452;2023-02-14T07:04:44;101080.88;;;2.18;100.00
30554;BME280;17335;50.720;7.452;2023-02-14T07:07:10;101079.97;;;2.18;100.00
30554;BME280;17335;50.720;7.452;2023-02-14T07:09:37;101092.28;;;2.20;100.00
30554;BME280;17335;50.720;7.452;2023-02-14T07:12:04;101087.78;;;2.22;100.00
30554;BME280;17335;50.720;7.452;2023-02-14T07:14:31;101088.75;;;2.20;100.00
30554;BME280;17335;50.720;7.452;2023-02-14T07:16:57;101082.66;;;2.16;100.00
30554;BME280;17335;50.720;7.452;2023-02-14T07:19:24;101085.13;;;2.22;100.00
30554;BME280;17335;50.720;7.452;2023-02-14T07:21:50;101086.84;;;2.23;100.00
30554;BME280;17335;50.720;7.452;2023-02-14T07:24:17;101076.25;;;2.23;100.00
30554;BME280;17335;50.720;7.452;2023-02-14T07:26:44;101080.56;;;2.28;100.00
30554;BME280;17335;50.720;7.452;2023-02-14T07:29:10;101078.72;;;2.30;100.00
30554;BME280;17335;50.720;7.452;2023-02-14T07:31:37;101080.47;;;2.31;100.00
30554;BME280;17335;50.720;7.452;2023-02-14T07:34:04;101083.06;;;2.32;100.00
30554;BME280;17335;50.720;7.452;2023-02-14T07:36:30;101078.59;;;2.34;100.00
30554;BME280;17335;50.720;7.452;2023-02-14T07:38:57;101059.16;;;2.34;100.00
30554;BME280;17335;50.720;7.452;2023-02-14T07:41:23;101071.44;;;2.36;100.00
30554;BME280;17335;50.720;7.452;2023-02-14T07:43:50;101064.34;;;2.37;100.00
30554;BME280;17335;50.720;7.452;2023-02-14T07:46:17;101060.69;;;2.41;100.00
30554;BME280;17335;50.720;7.452;2023-02-14T07:48:44;101076.59;;;2.41;100.00
30554;BME280;17335;50.720;7.452;2023-02-14T07:51:10;101067.56;;;2.47;100.00
30554;BME280;17335;50.720;7.452;2023-02-14T07:53:37;101075.47;;;2.48;100.00
30554;BME280;17335;50.720;7.452;2023-02-14T07:56:03;101073.69;;;2.49;100.00
30554;BME280;17335;50.720;7.452;2023-02-14T07:58:30;101069.25;;;2.49;100.00
30554;BME280;17335;50.720;7.452;2023-02-14T08:00:56;101070.91;;;2.53;100.00
30554;BME280;17335;50.720;7.452;2023-02-14T08:03:24;101078.75;;;2.56;100.00
30554;BME280;17335;50.720;7.452;2023-02-14T08:05:50;101071.56;;;2.60;100.00
30554;BME280;17335;50.720;7.452;2023-02-14T08:08:24;101079.47;;;2.61;100.00
30554;BME280;17335;50.720;7.452;2023-02-14T08:10:51;101077.72;;;2.60;100.00
30554;BME280;17335;50.720;7.452;2023-02-14T08:13:18;101083.59;;;2.70;100.00
30554;BME280;17335;50.720;7.452;2023-02-14T08:15:45;101080.75;;;2.75;100.00
30554;BME280;17335;50.720;7.452;2023-02-14T08:18:38;101077.06;;;2.80;100.00
30554;BME280;17335;50.720;7.452;2023-02-14T08:21:07;101081.94;;;2.93;100.00
30554;BME280;17335;50.720;7.452;2023-02-14T08:23:35;101082.75;;;2.95;100.00
30554;BME280;17335;50.720;7.452;2023-02-14T08:26:03;101078.94;;;3.02;100.00
30554;BME280;17335;50.720;7.452;2023-02-14T08:28:29;101075.28;;;3.06;100.00
30554;BME280;17335;50.720;7.452;2023-02-14T08:30:59;101072.34;;;3.14;100.00
30554;BME280;17335;50.720;7.452;2023-02-14T08:33:26;101078.41;;;3.17;100.00
30554;BME280;17335;50.720;7.452;2023-02-14T08:35:53;101075.69;;;3.19;100.00
30554;BME280;17335;50.720;7.452;2023-02-14T08:38:20;101069.34;;;3.23;100.00
30554;BME280;17335;50.720;7.452;2023-02-14T08:40:46;101071.69;;;3.32;100.00
30554;BME280;17335;50.720;7.452;2023-02-14T08:43:13;101070.59;;;3.38;100.00
30554;BME280;17335;50.720;7.452;2023-02-14T08:45:40;101071.34;;;3.42;100.00
30554;BME280;17335;50.720;7.452;2023-02-14T08:48:09;101065.72;;;3.51;100.00
30554;BME280;17335;50.720;7.452;2023-02-14T08:50:36;101065.72;;;3.51;100.00
30554;BME280;17335;50.720;7.452;2023-02-14T08:53:11;101072.72;;;3.52;100.00
30554;BME280;17335;50.720;7.452;2023-02-14T08:55:38;101071.50;;;3.61;100.00
30554;BME280;17335;50.720;7.452;2023-02-14T08:58:08;101066.03;;;3.65;100.00
30554;BME280;17335;50.720;7.452;2023-02-14T09:00:34;101070.09;;;3.75;100.00
30554;BME280;17335;50.720;7.452;2023-02-14T09:03:01;101070.94;;;3.76;100.00
30554;BME280;17335;50.720;7.452;2023-02-14T09:05:28;101079.59;;;3.81;100.00
30554;BME280;17335;50.720;7.452;2023-02-14T09:07:55;101079.53;;;3.83;100.00
30554;BME280;17335;50.720;7.452;2023-02-14T09:10:23;101074.81;;;3.91;100.00
30554;BME280;17335;50.720;7.452;2023-02-14T09:12:50;101085.75;;;4.05;100.00
30554;BME280;17335;50.720;7.452;2023-02-14T09:15:17;101088.41;;;4.05;100.00
30554;BME280;17335;50.720;7.452;2023-02-14T09:17:44;101076.88;;;4.06;100.00
30554;BME280;17335;50.720;7.452;2023-02-14T09:20:11;101077.44;;;4.15;100.00
30554;BME280;17335;50.720;7.452;2023-02-14T09:22:38;101087.81;;;4.21;100.00
30554;BME280;17335;50.720;7.452;2023-02-14T09:25:05;101083.16;;;4.26;100.00
30554;BME280;17335;50.720;7.452;2023-02-14T09:27:32;101082.13;;;4.30;100.00
30554;BME280;17335;50.720;7.452;2023-02-14T09:29:58;101079.09;;;4.39;100.00
30554;BME280;17335;50.720;7.452;2023-02-14T09:32:25;101080.09;;;4.37;100.00
30554;BME280;17335;50.720;7.452;2023-02-14T09:34:54;101075.13;;;4.49;100.00
30554;BME280;17335;50.720;7.452;2023-02-14T09:37:39;101080.22;;;4.56;100.00
30554;BME280;17335;50.720;7.452;2023-02-14T09:40:06;101075.47;;;4.62;100.00
30554;BME280;17335;50.720;7.452;2023-02-14T09:42:39;101071.59;;;4.71;100.00
30554;BME280;17335;50.720;7.452;2023-02-14T09:45:24;101069.59;;;4.76;100.00
30554;BME280;17335;50.720;7.452;2023-02-14T09:48:32;101072.03;;;4.81;100.00
30554;BME280;17335;50.720;7.452;2023-02-14T09:51:04;101061.09;;;4.88;100.00
30554;BME280;17335;50.720;7.452;2023-02-14T09:53:35;101067.06;;;4.94;100.00
30554;BME280;17335;50.720;7.452;2023-02-14T09:56:31;101064.91;;;5.02;100.00
30554;BME280;17335;50.720;7.452;2023-02-14T09:59:25;101062.78;;;5.10;100.00
30554;BME280;17335;50.720;7.452;2023-02-14T10:01:59;101063.19;;;5.21;100.00
30554;BME280;17335;50.720;7.452;2023-02-14T10:04:39;101061.25;;;5.25;100.00
30554;BME280;17335;50.720;7.452;2023-02-14T10:12:33;101055.19;;;5.42;100.00
30554;BME280;17335;50.720;7.452;2023-02-14T10:15:23;101051.34;;;5.48;100.00
30554;BME280;17335;50.720;7.452;2023-02-14T10:17:57;101051.22;;;5.51;100.00
30554;BME280;17335;50.720;7.452;2023-02-14T10:25:45;101047.47;;;5.74;100.00
30554;BME280;17335;50.720;7.452;2023-02-14T10:28:16;101042.72;;;5.80;100.00
30554;BME280;17335;50.720;7.452;2023-02-14T10:31:25;101039.06;;;5.83;100.00
30554;BME280;17335;50.720;7.452;2023-02-14T10:45:14;101032.88;;;6.01;100.00
30554;BME280;17335;50.720;7.452;2023-02-14T10:56:21;101005.66;;;6.31;100.00
30554;BME280;17335;50.720;7.452;2023-02-14T10:58:49;101003.28;;;6.43;100.00
30554;BME280;17335;50.720;7.452;2023-02-14T11:01:18;101007.84;;;6.41;100.00
30554;BME280;17335;50.720;7.452;2023-02-14T11:04:06;101001.59;;;6.42;100.00
30554;BME280;17335;50.720;7.452;2023-02-14T11:06:36;100996.75;;;6.50;100.00
30554;BME280;17335;50.720;7.452;2023-02-14T11:09:03;100995.78;;;6.51;100.00
30554;BME280;17335;50.720;7.452;2023-02-14T11:11:35;100994.50;;;6.58;100.00
30554;BME280;17335;50.720;7.452;2023-02-14T11:14:22;100997.38;;;6.55;100.00
30554;BME280;17335;50.720;7.452;2023-02-14T11:16:50;100991.63;;;6.63;100.00
30554;BME280;17335;50.720;7.452;2023-02-14T11:19:21;100990.59;;;6.65;100.00
30554;BME280;17335;50.720;7.452;2023-02-14T11:21:49;100989.03;;;6.61;100.00
30554;BME280;17335;50.720;7.452;2023-02-14T11:24:31;100996.41;;;6.73;100.00
30554;BME280;17335;50.720;7.452;2023-02-14T11:27:01;100984.63;;;6.78;100.00
30554;BME280;17335;50.720;7.452;2023-02-14T11:32:08;100980.91;;;6.98;100.00
30554;BME280;17335;50.720;7.452;2023-02-14T11:34:38;100978.69;;;7.06;100.00
30554;BME280;17335;50.720;7.452;2023-02-14T11:39:49;100971.09;;;6.98;100.00
30554;BME280;17335;50.720;7.452;2023-02-14T11:42:44;100973.03;;;7.12;100.00
30554;BME280;17335;50.720;7.452;2023-02-14T11:45:30;100968.69;;;7.09;100.00
30554;BME280;17335;50.720;7.452;2023-02-14T11:51:00;100949.28;;;6.90;100.00
30554;BME280;17335;50.720;7.452;2023-02-14T11:53:50;100959.63;;;6.96;100.00
30554;BME280;17335;50.720;7.452;2023-02-14T11:56:19;100947.53;;;6.89;100.00
30554;BME280;17335;50.720;7.452;2023-02-14T11:58:59;100937.25;;;6.99;100.00
30554;BME280;17335;50.720;7.452;2023-02-14T12:01:33;100941.34;;;6.88;100.00
30554;BME280;17335;50.720;7.452;2023-02-14T12:04:11;100943.09;;;6.89;100.00
30554;BME280;17335;50.720;7.452;2023-02-14T12:06:39;100940.75;;;6.99;100.00
30554;BME280;17335;50.720;7.452;2023-02-14T12:14:33;100924.81;;;7.31;100.00
30554;BME280;17335;50.720;7.452;2023-02-14T12:22:14;100903.59;;;7.28;100.00
30554;BME280;17335;50.720;7.452;2023-02-14T12:24:48;100904.88;;;7.21;100.00
30554;BME280;17335;50.720;7.452;2023-02-14T12:27:21;100914.88;;;7.17;100.00
30554;BME280;17335;50.720;7.452;2023-02-14T12:30:08;100899.63;;;7.19;100.00
30554;BME280;17335;50.720;7.452;2023-02-14T12:32:50;100897.94;;;7.34;100.00
30554;BME280;17335;50.720;7.452;2023-02-14T12:38:29;100893.34;;;7.52;100.00
30554;BME280;17335;50.720;7.452;2023-02-14T12:43:57;100890.03;;;7.63;100.00
30554;BME280;17335;50.720;7.452;2023-02-14T12:47:06;100889.88;;;7.66;100.00
30554;BME280;17335;50.720;7.452;2023-02-14T12:57:55;100871.94;;;7.20;100.00
30554;BME280;17335;50.720;7.452;2023-02-14T13:08:27;100866.75;;;7.65;100.00
30554;BME280;17335;50.720;7.452;2023-02-14T13:22:34;100838.47;;;8.07;100.00
30554;BME280;17335;50.720;7.452;2023-02-14T13:25:05;100832.00;;;8.25;100.00
30554;BME280;17335;50.720;7.452;2023-02-14T13:27:38;100821.84;;;8.16;100.00
30554;BME280;17335;50.720;7.452;2023-02-14T13:30:22;100814.97;;;8.26;100.00
30554;BME280;17335;50.720;7.452;2023-02-14T13:32:51;100826.56;;;8.27;100.00
30554;BME280;17335;50.720;7.452;2023-02-14T13:35:21;100816.78;;;8.12;100.00
30554;BME280;17335;50.720;7.452;2023-02-14T13:38:01;100820.06;;;8.17;100.00
30554;BME280;17335;50.720;7.452;2023-02-14T13:40:29;100821.09;;;8.14;100.00
30554;BME280;17335;50.720;7.452;2023-02-14T13:42:59;100812.72;;;7.90;100.00
30554;BME280;17335;50.720;7.452;2023-02-14T13:48:19;100813.41;;;7.94;100.00
30554;BME280;17335;50.720;7.452;2023-02-14T13:53:37;100808.38;;;8.03;100.00
30554;BME280;17335;50.720;7.452;2023-02-14T13:58:57;100800.66;;;8.13;100.00
30554;BME280;17335;50.720;7.452;2023-02-14T14:01:35;100805.91;;;8.29;100.00
30554;BME280;17335;50.720;7.452;2023-02-14T14:09:55;100786.34;;;8.29;100.00
30554;BME280;17335;50.720;7.452;2023-02-14T14:12:35;100789.56;;;8.34;100.00
30554;BME280;17335;50.720;7.452;2023-02-14T14:26:33;100778.69;;;8.22;100.00
30554;BME280;17335;50.720;7.452;2023-02-14T14:29:00;100770.66;;;8.22;100.00
30554;BME280;17335;50.720;7.452;2023-02-14T14:31:27;100777.88;;;8.06;100.00
30554;BME280;17335;50.720;7.452;2023-02-14T14:34:01;100776.19;;;8.19;100.00
30554;BME280;17335;50.720;7.452;2023-02-14T14:36:27;100771.09;;;8.00;100.00
30554;BME280;17335;50.720;7.452;2023-02-14T14:38:54;100767.03;;;8.23;100.00
30554;BME280;17335;50.720;7.452;2023-02-14T14:41:28;100767.25;;;7.90;100.00
30554;BME280;17335;50.720;7.452;2023-02-14T14:43:58;100764.91;;;7.69;100.00
30554;BME280;17335;50.720;7.452;2023-02-14T14:46:24;100765.41;;;7.62;100.00
30554;BME280;17335;50.720;7.452;2023-02-14T14:48:54;100768.84;;;7.64;100.00
30554;BME280;17335;50.720;7.452;2023-02-14T14:51:24;100763.16;;;7.54;100.00
30554;BME280;17335;50.720;7.452;2023-02-14T14:54:23;100771.06;;;7.41;100.00
30554;BME280;17335;50.720;7.452;2023-02-14T14:56:58;100752.34;;;7.41;100.00
30554;BME280;17335;50.720;7.452;2023-02-14T14:59:35;100755.69;;;7.45;100.00
30554;BME280;17335;50.720;7.452;2023-02-14T15:02:27;100748.03;;;7.39;100.00
30554;BME280;17335;50.720;7.452;2023-02-14T15:04:52;100751.38;;;7.42;100.00
30554;BME280;17335;50.720;7.452;2023-02-14T15:07:25;100748.53;;;7.45;100.00
30554;BME280;17335;50.720;7.452;2023-02-14T15:09:55;100749.25;;;7.33;100.00
30554;BME280;17335;50.720;7.452;2023-02-14T15:12:23;100751.06;;;7.32;100.00
30554;BME280;17335;50.720;7.452;2023-02-14T15:15:11;100760.06;;;7.16;100.00
30554;BME280;17335;50.720;7.452;2023-02-14T15:17:39;100755.66;;;7.14;100.00
30554;BME280;17335;50.720;7.452;2023-02-14T15:20:16;100747.72;;;7.13;100.00
30554;BME280;17335;50.720;7.452;2023-02-14T15:22:46;100752.72;;;7.19;100.00
30554;BME280;17335;50.720;7.452;2023-02-14T15:25:25;100743.59;;;7.07;100.00
30554;BME280;17335;50.720;7.452;2023-02-14T15:27:53;100737.91;;;6.98;100.00
30554;BME280;17335;50.720;7.452;2023-02-14T15:30:27;100736.47;;;6.92;100.00
30554;BME280;17335;50.720;7.452;2023-02-14T15:32:57;100740.59;;;6.82;100.00
30554;BME280;17335;50.720;7.452;2023-02-14T15:35:27;100744.03;;;6.84;100.00
30554;BME280;17335;50.720;7.452;2023-02-14T15:37:56;100748.88;;;6.61;100.00
30554;BME280;17335;50.720;7.452;2023-02-14T15:40:25;100751.34;;;6.48;100.00
30554;BME280;17335;50.720;7.452;2023-02-14T15:42:53;100749.09;;;6.41;100.00
30554;BME280;17335;50.720;7.452;2023-02-14T15:47:56;100747.88;;;6.30;100.00
30554;BME280;17335;50.720;7.452;2023-02-14T15:50:28;100743.28;;;6.16;100.00
30554;BME280;17335;50.720;7.452;2023-02-14T15:55:42;100740.34;;;6.05;100.00